Time;durP1;ratioP1;P1;durP2;ratioP2;P2;SDS_P1;SDS_P2;PMS_P1;PMS_P2;Temp;Humidity;BMP_temperature;BMP_pressure;BME280_temperature;BME280_humidity;BME280_pressure;Samples;Min_cycle;Max_cycle;Signal;HPM_P1;HPM_P2
2022/08/31 00:04:17;;;;;;;16.00;9.60;;;;;;;15.25;100.00;100066.83;1748089;82;21202;-64
2022/08/31 00:06:44;;;;;;;17.52;9.48;;;;;;;15.20;100.00;100071.52;1747873;82;21554;-64
2022/08/31 00:09:11;;;;;;;21.90;11.20;;;;;;;15.20;100.00;100074.17;1718497;82;21993;-63
2022/08/31 00:11:38;;;;;;;18.20;10.75;;;;;;;15.21;100.00;100073.25;1747980;82;21529;-64
2022/08/31 00:14:07;;;;;;;21.85;11.93;;;;;;;15.21;100.00;100075.91;1747803;82;21005;-64
2022/08/31 00:16:36;;;;;;;13.93;8.95;;;;;;;15.18;100.00;100076.53;1747755;82;21253;-64
2022/08/31 00:19:03;;;;;;;10.65;7.75;;;;;;;15.17;100.00;100077.02;1748713;82;21021;-64
2022/08/31 00:21:30;;;;;;;11.08;7.95;;;;;;;15.16;100.00;100076.64;1748927;82;21072;-62
2022/08/31 00:23:57;;;;;;;9.30;7.25;;;;;;;15.14;100.00;100078.52;1748550;82;21098;-63
2022/08/31 00:26:24;;;;;;;14.40;8.10;;;;;;;15.11;100.00;100070.72;1748915;82;22161;-64
2022/08/31 00:28:52;;;;;;;14.63;8.25;;;;;;;15.10;100.00;100076.98;1748373;82;21150;-64
2022/08/31 00:31:19;;;;;;;16.17;8.63;;;;;;;15.08;100.00;100073.55;1748339;82;21041;-64
2022/08/31 00:33:51;;;;;;;16.77;8.85;;;;;;;15.05;100.00;100073.27;1748227;82;21400;-63
2022/08/31 00:36:15;;;;;;;11.60;8.73;;;;;;;15.02;100.00;100071.23;1748100;82;21090;-63
2022/08/31 00:38:43;;;;;;;14.25;8.58;;;;;;;15.00;100.00;100074.44;1748090;82;21030;-65
2022/08/31 00:41:10;;;;;;;14.70;8.75;;;;;;;14.98;100.00;100075.03;1748535;82;21140;-65
2022/08/31 00:43:47;;;;;;;15.95;9.08;;;;;;;14.95;100.00;100072.53;1747890;82;21589;-64
2022/08/31 00:46:18;;;;;;;12.73;9.13;;;;;;;14.96;100.00;100074.26;1748193;81;21505;-63
2022/08/31 00:49:17;;;;;;;16.50;9.70;;;;;;;14.94;100.00;100074.81;1748377;82;21073;-64
2022/08/31 00:52:08;;;;;;;17.48;9.73;;;;;;;14.89;100.00;100073.73;1748325;82;21018;-65
2022/08/31 00:54:54;;;;;;;16.02;9.70;;;;;;;14.84;100.00;100072.67;1745783;82;21173;-64
2022/08/31 00:57:22;;;;;;;16.00;9.60;;;;;;;14.80;100.00;100070.27;1745345;82;21516;-65
2022/08/31 00:59:48;;;;;;;16.65;10.15;;;;;;;14.78;100.00;100067.70;1748350;82;21116;-64
2022/08/31 01:02:16;;;;;;;18.00;9.95;;;;;;;14.73;100.00;100071.08;1748282;82;21569;-64
2022/08/31 01:04:43;;;;;;;19.10;11.55;;;;;;;14.71;100.00;100072.95;1748253;82;21081;-64
2022/08/31 01:07:10;;;;;;;20.35;11.15;;;;;;;14.70;100.00;100075.23;1748234;82;21241;-64
2022/08/31 01:09:40;;;;;;;18.48;10.55;;;;;;;14.68;100.00;100071.33;1748190;82;21080;-64
2022/08/31 01:12:07;;;;;;;20.27;13.28;;;;;;;14.69;100.00;100073.51;1748222;82;21034;-64
2022/08/31 01:14:36;;;;;;;18.55;12.07;;;;;;;14.70;100.00;100076.56;1748006;82;21014;-63
2022/08/31 01:17:03;;;;;;;18.52;11.18;;;;;;;14.69;100.00;100079.66;1748106;81;21037;-64
2022/08/31 01:19:35;;;;;;;17.73;10.58;;;;;;;14.69;100.00;100072.18;1748195;82;21208;-64
2022/08/31 01:22:38;;;;;;;13.80;8.58;;;;;;;14.67;100.00;100077.55;1748193;82;21105;-63
2022/08/31 01:25:06;;;;;;;16.73;11.03;;;;;;;14.65;100.00;100076.81;1748207;82;21057;-63
2022/08/31 01:27:35;;;;;;;18.80;10.72;;;;;;;14.63;100.00;100072.51;1747977;82;21100;-63
2022/08/31 01:30:08;;;;;;;16.55;10.75;;;;;;;14.60;100.00;100079.31;1748485;82;21623;-64
2022/08/31 01:32:37;;;;;;;15.25;9.80;;;;;;;14.55;100.00;100080.04;1747877;82;21128;-64
2022/08/31 01:35:06;;;;;;;16.65;10.60;;;;;;;14.52;100.00;100074.88;1748317;82;21067;-64
2022/08/31 01:37:33;;;;;;;21.27;10.38;;;;;;;14.47;100.00;100075.98;1747942;82;21053;-65
2022/08/31 01:40:00;;;;;;;15.75;10.35;;;;;;;14.44;100.00;100080.58;1747889;82;20998;-64
2022/08/31 01:42:26;;;;;;;19.42;10.95;;;;;;;14.41;100.00;100080.75;1748003;82;21116;-64
2022/08/31 01:44:53;;;;;;;16.48;10.20;;;;;;;14.37;100.00;100081.37;1747961;82;21384;-65
2022/08/31 01:47:20;;;;;;;17.82;11.45;;;;;;;14.34;100.00;100076.24;1748110;82;21092;-66
2022/08/31 01:49:46;;;;;;;18.30;10.90;;;;;;;14.33;100.00;100076.31;1748014;82;21085;-62
2022/08/31 01:52:13;;;;;;;14.50;10.28;;;;;;;14.28;100.00;100071.27;1747926;82;21069;-63
2022/08/31 01:54:40;;;;;;;18.75;11.70;;;;;;;14.26;100.00;100070.48;1748136;82;21108;-64
2022/08/31 01:57:09;;;;;;;15.70;10.70;;;;;;;14.23;100.00;100072.83;1748051;82;21261;-64
2022/08/31 01:59:44;;;;;;;20.00;11.05;;;;;;;14.20;100.00;100066.86;1744649;82;21050;-63
2022/08/31 02:02:29;;;;;;;21.05;12.10;;;;;;;14.18;100.00;100071.37;1718202;83;21097;-64
2022/08/31 02:04:57;;;;;;;21.20;12.00;;;;;;;14.16;100.00;100067.95;1717944;83;21116;-64
2022/08/31 02:07:27;;;;;;;20.37;12.07;;;;;;;14.14;100.00;100069.82;1717958;83;21132;-63
2022/08/31 02:09:54;;;;;;;19.75;10.50;;;;;;;14.12;100.00;100069.05;1717851;83;21108;-65
2022/08/31 02:12:21;;;;;;;16.40;10.25;;;;;;;14.09;100.00;100065.25;1718029;83;21499;-63
2022/08/31 02:14:48;;;;;;;15.83;10.85;;;;;;;14.10;100.00;100065.62;1718093;83;21080;-63
2022/08/31 02:17:15;;;;;;;17.15;10.90;;;;;;;14.11;100.00;100064.22;1718106;83;21056;-65
2022/08/31 02:19:41;;;;;;;18.82;11.40;;;;;;;14.05;100.00;100058.77;1718070;83;21073;-64
2022/08/31 02:22:08;;;;;;;19.80;11.65;;;;;;;14.02;100.00;100057.61;1718301;83;21235;-63
2022/08/31 02:24:35;;;;;;;21.05;11.33;;;;;;;14.01;100.00;100055.03;1718202;83;21162;-64
2022/08/31 02:27:02;;;;;;;19.17;11.85;;;;;;;14.00;100.00;100057.31;1718206;83;21122;-64
2022/08/31 02:29:29;;;;;;;16.25;10.48;;;;;;;13.96;100.00;100055.27;1718048;83;21104;-65
2022/08/31 02:31:57;;;;;;;22.25;11.53;;;;;;;13.94;100.00;100057.17;1718489;83;21096;-64
2022/08/31 02:34:24;;;;;;;18.27;11.60;;;;;;;13.92;100.00;100053.75;1718305;83;21425;-64
2022/08/31 02:36:52;;;;;;;20.75;11.38;;;;;;;13.90;100.00;100056.94;1718179;83;22112;-64
2022/08/31 02:39:19;;;;;;;17.12;10.48;;;;;;;13.90;100.00;100064.03;1718197;83;21108;-64
2022/08/31 02:41:46;;;;;;;16.70;10.40;;;;;;;13.89;100.00;100061.83;1718360;83;21109;-64
2022/08/31 02:44:13;;;;;;;18.40;10.95;;;;;;;13.90;100.00;100056.09;1718208;83;21069;-65
2022/08/31 02:46:41;;;;;;;18.73;11.28;;;;;;;13.90;100.00;100055.61;1718061;83;21456;-64
2022/08/31 02:49:10;;;;;;;21.50;11.50;;;;;;;13.89;100.00;100063.63;1715009;83;22123;-63
2022/08/31 02:51:41;;;;;;;17.25;11.03;;;;;;;13.88;100.00;100066.75;1718221;83;21073;-63
2022/08/31 02:54:08;;;;;;;19.20;11.22;;;;;;;13.87;100.00;100065.02;1730195;82;21085;-64
2022/08/31 02:56:35;;;;;;;20.30;11.20;;;;;;;13.85;100.00;100072.21;1748249;82;21601;-63
2022/08/31 02:59:01;;;;;;;19.42;11.83;;;;;;;13.85;100.00;100065.59;1748057;82;21268;-63
2022/08/31 03:01:28;;;;;;;19.67;11.05;;;;;;;13.83;100.00;100056.88;1747999;82;22250;-65
2022/08/31 03:03:56;;;;;;;16.17;11.50;;;;;;;13.81;100.00;100058.27;1748097;82;21093;-64
2022/08/31 03:06:23;;;;;;;16.32;11.00;;;;;;;13.82;100.00;100057.79;1748327;82;21093;-64
2022/08/31 03:08:50;;;;;;;16.50;10.78;;;;;;;13.81;100.00;100058.27;1748183;82;21049;-64
2022/08/31 03:11:17;;;;;;;19.73;12.15;;;;;;;13.79;100.00;100056.16;1748159;82;21193;-66
2022/08/31 03:13:45;;;;;;;16.82;10.35;;;;;;;13.79;100.00;100053.98;1747990;82;21093;-63
2022/08/31 03:16:13;;;;;;;21.77;10.95;;;;;;;13.81;100.00;100060.06;1748299;82;21006;-63
2022/08/31 03:18:40;;;;;;;17.23;11.43;;;;;;;13.80;100.00;100057.01;1747924;81;21069;-64
2022/08/31 03:21:07;;;;;;;17.00;10.40;;;;;;;13.79;100.00;100054.84;1748063;82;20994;-63
2022/08/31 03:23:35;;;;;;;21.50;10.88;;;;;;;13.81;100.00;100058.73;1748105;82;21242;-65
2022/08/31 03:26:04;;;;;;;17.85;11.65;;;;;;;13.82;100.00;100053.82;1747839;82;21026;-64
2022/08/31 03:28:33;;;;;;;17.40;10.85;;;;;;;13.84;100.00;100054.59;1748066;82;21046;-64
2022/08/31 03:31:09;;;;;;;18.65;11.50;;;;;;;13.88;100.00;100055.31;1743674;82;21093;-67
2022/08/31 03:33:37;;;;;;;15.43;11.05;;;;;;;13.87;100.00;100058.40;1715277;82;21104;-65
2022/08/31 03:36:04;;;;;;;18.25;10.68;;;;;;;14.00;100.00;100056.83;1748029;82;21220;-64
2022/08/31 03:38:31;;;;;;;17.85;11.38;;;;;;;14.14;100.00;100059.23;1747810;82;21165;-64
2022/08/31 03:40:58;;;;;;;19.20;11.53;;;;;;;14.24;100.00;100063.09;1747787;82;21030;-63
2022/08/31 03:43:25;;;;;;;21.93;11.45;;;;;;;14.27;100.00;100060.30;1747960;82;21053;-63
2022/08/31 03:45:53;;;;;;;20.72;10.80;;;;;;;14.36;100.00;100055.83;1747967;82;21057;-64
2022/08/31 03:48:20;;;;;;;24.65;11.60;;;;;;;14.58;100.00;100058.66;1747876;82;21127;-65
2022/08/31 03:50:46;;;;;;;20.25;11.03;;;;;;;14.84;100.00;100062.55;1747814;82;21069;-65
2022/08/31 03:53:18;;;;;;;24.30;10.93;;;;;;;15.16;100.00;100062.05;1747390;82;21021;-64
2022/08/31 03:55:44;;;;;;;18.75;10.60;;;;;;;15.48;100.00;100071.25;1747853;82;21058;-64
2022/08/31 03:58:11;;;;;;;16.10;8.93;;;;;;;15.68;100.00;100068.28;1748147;82;21048;-64
2022/08/31 04:00:38;;;;;;;16.87;10.10;;;;;;;15.82;100.00;100070.63;1748095;82;21246;-63
2022/08/31 04:03:07;;;;;;;15.65;8.75;;;;;;;15.87;100.00;100064.56;1748610;82;21084;-64
2022/08/31 04:05:51;;;;;;;15.13;9.28;;;;;;;15.93;100.00;100068.19;1685776;84;21077;-65
2022/08/31 04:08:35;;;;;;;20.00;10.48;;;;;;;15.99;100.00;100062.52;1685278;84;21117;-65
2022/08/31 04:11:22;;;;;;;17.50;10.68;;;;;;;15.99;100.00;100063.84;1736968;82;21037;-64
2022/08/31 04:13:59;;;;;;;17.73;10.40;;;;;;;15.98;100.00;100062.60;1685800;85;21178;-64
2022/08/31 04:16:36;;;;;;;15.45;9.30;;;;;;;16.02;100.00;100066.31;1748115;82;21010;-65
2022/08/31 04:19:07;;;;;;;16.67;9.83;;;;;;;16.01;100.00;100061.95;1748019;82;21014;-64
2022/08/31 04:21:36;;;;;;;17.52;9.80;;;;;;;16.15;100.00;100059.31;1748472;82;21051;-64
2022/08/31 04:24:04;;;;;;;21.07;9.43;;;;;;;16.49;100.00;100049.22;1748186;82;21556;-64
2022/08/31 04:26:34;;;;;;;18.75;9.85;;;;;;;17.11;100.00;100058.63;1748069;82;21155;-65
2022/08/31 04:29:00;;;;;;;18.12;9.15;;;;;;;17.74;100.00;100057.97;1748384;82;21529;-64
2022/08/31 04:31:28;;;;;;;17.65;8.58;;;;;;;18.40;100.00;100061.88;1748187;82;21104;-64
2022/08/31 04:33:55;;;;;;;14.45;8.70;;;;;;;18.95;100.00;100059.77;1748131;82;21081;-65
2022/08/31 04:36:25;;;;;;;14.83;7.72;;;;;;;19.57;99.67;100057.40;1745597;81;21119;-66
2022/08/31 04:38:54;;;;;;;;;;;;;;;20.14;95.83;100059.27;1750946;82;21113;-64
2022/08/31 04:41:23;;;;;;;16.87;8.63;;;;;;;20.71;92.94;100058.83;1748198;82;20210;-65
2022/08/31 04:43:54;;;;;;;13.30;8.13;;;;;;;21.29;89.63;100054.54;1748504;82;21041;-65
2022/08/31 04:46:21;;;;;;;14.00;8.35;;;;;;;21.85;86.45;100054.28;1748628;82;21053;-64
2022/08/31 04:48:48;;;;;;;20.40;8.45;;;;;;;22.43;83.12;100058.30;1748242;82;21049;-65
2022/08/31 04:51:23;;;;;;;10.85;7.50;;;;;;;22.93;79.75;100062.36;1748101;82;21548;-65
2022/08/31 04:53:51;;;;;;;13.68;7.33;;;;;;;23.36;76.39;100057.16;1740213;82;21045;-65
2022/08/31 04:56:22;;;;;;;12.90;7.05;;;;;;;23.79;74.57;100061.27;1718608;83;21096;-65
2022/08/31 04:58:51;;;;;;;16.27;8.00;;;;;;;24.19;72.73;100060.19;1718500;83;21112;-66
2022/08/31 05:01:21;;;;;;;17.35;7.08;;;;;;;24.54;71.10;100057.32;1691994;83;21108;-67
2022/08/31 05:04:07;;;;;;;14.98;7.08;;;;;;;24.83;69.43;100053.14;1718644;83;21259;-66
2022/08/31 05:06:37;;;;;;;11.22;6.53;;;;;;;25.21;66.98;100052.05;1718614;83;21048;-65
2022/08/31 05:09:08;;;;;;;14.75;6.87;;;;;;;25.59;65.34;100052.75;1691662;83;21026;-65
2022/08/31 05:11:35;;;;;;;11.08;6.28;;;;;;;25.89;63.08;100053.35;1718116;83;21054;-68
2022/08/31 05:14:04;;;;;;;10.95;6.37;;;;;;;26.21;60.11;100051.37;1718504;83;21033;-66
2022/08/31 05:16:32;;;;;;;11.57;6.67;;;;;;;26.54;57.92;100052.88;1691681;83;21562;-66
2022/08/31 05:18:59;;;;;;;9.28;6.15;;;;;;;26.76;52.23;100055.55;1710325;83;21529;-65
2022/08/31 05:21:33;;;;;;;11.03;6.42;;;;;;;26.76;50.94;100055.55;1704750;84;21070;-65
2022/08/31 05:24:03;;;;;;;12.35;6.03;;;;;;;26.83;51.62;100051.69;1705308;84;21029;-66
2022/08/31 05:26:37;;;;;;;10.63;6.05;;;;;;;27.08;50.26;100052.57;1705052;84;21027;-65
2022/08/31 05:29:06;;;;;;;10.50;5.17;;;;;;;27.64;48.38;100052.85;1705140;84;21124;-64
2022/08/31 05:31:36;;;;;;;12.00;5.20;;;;;;;27.64;48.38;100052.85;1705154;84;21073;-65
2022/08/31 05:34:04;;;;;;;12.35;5.85;;;;;;;27.96;48.18;100052.02;1704990;83;21274;-65
2022/08/31 05:36:34;;;;;;;11.05;6.20;;;;;;;28.38;47.37;100051.73;1726387;82;21102;-66
2022/08/31 05:39:01;;;;;;;9.25;5.20;;;;;;;28.89;46.00;100051.38;1713198;82;21105;-65
2022/08/31 05:41:28;;;;;;;13.95;5.78;;;;;;;29.19;44.61;100043.44;1734187;82;21354;-66
2022/08/31 05:43:56;;;;;;;8.15;5.08;;;;;;;29.32;43.00;100049.11;1734341;82;21030;-66
2022/08/31 05:46:23;;;;;;;8.18;5.08;;;;;;;29.23;43.36;100052.91;1713258;82;21627;-67
2022/08/31 05:48:50;;;;;;;15.75;6.10;;;;;;;29.40;43.57;100045.48;1734368;82;21049;-66
2022/08/31 05:51:17;;;;;;;9.80;5.10;;;;;;;29.59;42.80;100044.17;1734120;82;21038;-66
2022/08/31 05:53:44;;;;;;;11.08;4.95;;;;;;;29.82;42.78;100047.72;1734338;82;21096;-66
2022/08/31 05:56:18;;;;;;;10.00;4.87;;;;;;;30.08;41.20;100044.56;1733996;82;21046;-66
2022/08/31 05:58:46;;;;;;;9.10;5.00;;;;;;;30.08;41.20;100047.28;1734333;82;21042;-66
2022/08/31 06:01:22;;;;;;;8.78;4.17;;;;;;;30.39;41.06;100049.52;1734008;82;21037;-66
2022/08/31 06:03:52;;;;;;;6.85;3.92;;;;;;;30.65;40.73;100044.98;1733257;82;21086;-66
2022/08/31 06:06:20;;;;;;;7.12;4.42;;;;;;;31.04;39.58;100049.24;1734395;82;21870;-65
2022/08/31 06:08:50;;;;;;;7.00;4.25;;;;;;;31.27;38.84;100052.62;1734222;82;21504;-65
2022/08/31 06:11:18;;;;;;;10.85;4.28;;;;;;;31.32;38.06;100046.60;1734139;81;20995;-66
2022/08/31 06:13:47;;;;;;;6.70;3.58;;;;;;;31.39;38.63;100050.22;1734498;82;21006;-65
2022/08/31 06:16:13;;;;;;;8.58;3.80;;;;;;;31.59;37.78;100042.78;1734325;82;20998;-66
2022/08/31 06:18:48;;;;;;;4.47;3.00;;;;;;;31.61;37.54;100046.16;1734091;82;21309;-67
2022/08/31 06:21:11;;;;;;;5.75;3.27;;;;;;;31.75;36.96;100042.00;1733170;82;21034;-66
2022/08/31 06:23:41;;;;;;;5.00;3.30;;;;;;;31.82;36.74;100037.97;1734030;82;21007;-64
2022/08/31 06:26:14;;;;;;;7.97;3.02;;;;;;;32.04;36.85;100042.02;1733942;82;21046;-65
2022/08/31 06:28:48;;;;;;;5.53;3.20;;;;;;;32.16;36.68;100045.87;1734398;82;21017;-66
2022/08/31 06:31:28;;;;;;;9.73;2.70;;;;;;;32.29;36.19;100051.41;1734327;82;21111;-65
2022/08/31 06:33:54;;;;;;;4.85;2.67;;;;;;;32.53;35.96;100045.16;1734267;82;21034;-65
2022/08/31 06:36:35;;;;;;;5.25;2.58;;;;;;;32.78;35.43;100053.17;1740920;82;21049;-66
2022/08/31 06:39:04;;;;;;;4.33;2.55;;;;;;;33.00;34.47;100055.75;1705549;82;21038;-66
2022/08/31 06:41:39;;;;;;;6.12;2.37;;;;;;;33.07;34.74;100053.91;1739534;82;21466;-65
2022/08/31 06:44:25;;;;;;;4.80;2.52;;;;;;;33.16;34.04;100054.04;1734324;82;21251;-65
2022/08/31 06:46:59;;;;;;;9.00;2.67;;;;;;;33.21;34.10;100053.42;1721813;82;21026;-66
2022/08/31 06:49:27;;;;;;;4.90;2.17;;;;;;;33.12;33.57;100054.13;1733680;82;21022;-66
2022/08/31 06:51:54;;;;;;;5.65;1.90;;;;;;;32.89;33.93;100061.79;1734353;82;21049;-66
2022/08/31 06:54:21;;;;;;;6.70;2.22;;;;;;;32.81;34.20;100066.38;1720023;82;21065;-65
2022/08/31 06:57:07;;;;;;;7.15;1.50;;;;;;;33.00;34.23;100061.20;1704919;84;21262;-66
2022/08/31 06:59:52;;;;;;;2.75;1.50;;;;;;;33.20;33.67;100067.59;1704358;84;21109;-65
2022/08/31 07:02:26;;;;;;;6.17;2.17;;;;;;;33.30;33.39;100066.35;1703957;83;21148;-66
2022/08/31 07:04:53;;;;;;;5.65;1.72;;;;;;;33.27;33.11;100059.42;1704771;84;21030;-65
2022/08/31 07:07:20;;;;;;;3.77;1.80;;;;;;;33.43;32.98;100058.19;1704825;84;21046;-65
2022/08/31 07:09:46;;;;;;;3.50;1.85;;;;;;;33.61;32.93;100052.98;1704656;84;21265;-65
2022/08/31 07:12:13;;;;;;;5.25;1.65;;;;;;;33.67;32.71;100058.66;1704730;84;21050;-66
2022/08/31 07:14:40;;;;;;;5.35;1.70;;;;;;;33.67;32.70;100050.46;1704769;84;21014;-63
2022/08/31 07:17:08;;;;;;;2.55;1.50;;;;;;;33.38;32.57;100047.90;1704776;84;21010;-64
2022/08/31 07:19:35;;;;;;;3.02;1.52;;;;;;;33.32;32.83;100050.61;1708854;83;21093;-66
2022/08/31 07:22:05;;;;;;;3.65;1.75;;;;;;;33.59;32.77;100045.53;1712714;83;21131;-67
2022/08/31 07:24:34;;;;;;;3.25;1.70;;;;;;;33.94;32.01;100043.94;1713107;83;21037;-64
2022/08/31 07:27:08;;;;;;;6.62;1.60;;;;;;;34.12;31.51;100050.66;1712595;83;21061;-65
2022/08/31 07:29:46;;;;;;;4.15;1.85;;;;;;;34.06;31.22;100051.80;1711381;83;21026;-66
2022/08/31 07:32:14;;;;;;;3.37;1.82;;;;;;;34.03;31.24;100047.30;1712638;83;21062;-65
2022/08/31 07:34:43;;;;;;;5.45;1.55;;;;;;;33.53;31.52;100044.13;1684743;83;21269;-66
2022/08/31 07:43:03;;;;;;;3.58;1.60;;;;;;;32.77;32.04;100056.92;1712885;83;21038;-65
2022/08/31 07:45:28;;;;;;;5.97;1.90;;;;;;;31.79;33.71;100053.32;1712694;83;21203;-66
2022/08/31 07:47:56;;;;;;;6.28;2.20;;;;;;;31.46;34.51;100057.96;1712905;83;21229;-66
2022/08/31 07:50:26;;;;;;;3.77;1.87;;;;;;;31.38;34.71;100052.60;1713263;83;21037;-66
2022/08/31 07:52:59;;;;;;;5.53;2.02;;;;;;;31.49;34.55;100056.20;1709510;83;21037;-66
2022/08/31 07:55:34;;;;;;;3.65;2.33;;;;;;;31.58;34.19;100049.28;1695193;82;21030;-66
2022/08/31 07:58:02;;;;;;;2.93;1.93;;;;;;;31.54;34.43;100043.37;1742625;82;21049;-66
2022/08/31 08:00:34;;;;;;;6.15;2.00;;;;;;;31.92;34.33;100038.45;1742199;82;21129;-67
2022/08/31 08:03:06;;;;;;;3.55;2.22;;;;;;;32.05;33.96;100038.25;1742547;82;21131;-66
2022/08/31 08:05:40;;;;;;;6.28;2.42;;;;;;;31.82;34.13;100041.19;1742565;82;20979;-66
2022/08/31 08:08:21;;;;;;;4.55;2.50;;;;;;;31.30;35.11;100037.78;1740049;82;21085;-67
2022/08/31 08:10:59;;;;;;;3.60;2.72;;;;;;;30.68;36.53;100035.08;1741613;82;21072;-66
2022/08/31 08:13:34;;;;;;;4.60;2.55;;;;;;;30.03;37.93;100043.45;1722483;82;21614;-66
2022/08/31 08:16:10;;;;;;;3.58;2.05;;;;;;;29.64;38.85;100047.17;1740654;82;21068;-68
2022/08/31 08:18:42;;;;;;;5.10;2.20;;;;;;;29.19;39.46;100046.15;1740390;81;21109;-66
2022/08/31 08:21:09;;;;;;;3.37;2.30;;;;;;;29.26;39.67;100041.20;1734231;82;21042;-68
2022/08/31 08:23:37;;;;;;;4.22;1.95;;;;;;;29.44;40.21;100036.80;1734114;82;21066;-67
2022/08/31 08:26:21;;;;;;;3.55;1.95;;;;;;;29.82;39.39;100021.94;1716517;82;21121;-66
2022/08/31 08:29:06;;;;;;;5.40;2.00;;;;;;;30.40;37.90;100017.27;1730402;82;21006;-68
2022/08/31 08:31:34;;;;;;;5.17;2.20;;;;;;;30.40;37.90;100017.27;1734147;82;21049;-66
2022/08/31 08:34:01;;;;;;;3.02;1.92;;;;;;;30.43;37.64;100021.79;1713329;82;21094;-65
2022/08/31 08:36:34;;;;;;;4.83;2.12;;;;;;;30.16;37.77;100021.06;1734377;82;20983;-67
2022/08/31 08:38:59;;;;;;;5.55;2.30;;;;;;;29.95;38.42;100028.59;1734028;81;21173;-67
2022/08/31 08:41:27;;;;;;;5.70;2.15;;;;;;;29.67;39.11;100027.80;1734083;82;21062;-66
2022/08/31 08:43:57;;;;;;;5.47;2.45;;;;;;;29.53;39.20;100028.61;1734258;82;21268;-66
2022/08/31 08:46:54;;;;;;;4.35;2.22;;;;;;;29.63;38.83;100029.19;1733984;82;21053;-66
2022/08/31 08:49:30;;;;;;;5.03;2.33;;;;;;;29.63;38.83;100029.19;1734525;82;21044;-65
2022/08/31 08:52:03;;;;;;;4.53;2.17;;;;;;;29.85;38.97;100017.48;1734119;82;21122;-65
2022/08/31 08:54:33;;;;;;;5.80;2.50;;;;;;;29.86;38.27;100024.62;1718204;82;21030;-68
2022/08/31 08:57:17;;;;;;;5.42;2.45;;;;;;;29.24;39.15;100017.97;1704904;84;21109;-66
2022/08/31 08:59:45;;;;;;;7.45;2.62;;;;;;;29.24;39.15;100017.97;1704352;83;21902;-66
2022/08/31 09:02:33;;;;;;;6.08;2.70;;;;;;;28.74;39.93;100025.55;1704860;84;21057;-65
2022/08/31 09:05:24;;;;;;;12.50;3.33;;;;;;;28.71;40.48;100014.21;1704857;84;21152;-66
2022/08/31 09:08:41;;;;;;;6.62;2.85;;;;;;;29.02;39.97;100006.91;1683228;84;21042;-68
2022/08/31 09:11:48;;;;;;;5.20;3.30;;;;;;;29.58;39.94;99999.05;1719278;82;21108;-67
2022/08/31 09:14:52;;;;;;;5.03;2.80;;;;;;;30.22;38.64;99998.59;1704859;84;21518;-66
2022/08/31 09:17:59;;;;;;;7.70;3.75;;;;;;;30.24;37.22;100001.45;1704988;84;21046;-66
2022/08/31 09:20:27;;;;;;;5.83;3.22;;;;;;;29.75;38.55;100016.92;1710042;83;21135;-66
2022/08/31 09:22:55;;;;;;;7.37;3.00;;;;;;;29.30;39.48;100018.61;1712821;83;21021;-65
2022/08/31 09:25:32;;;;;;;20.37;4.00;;;;;;;28.88;40.12;100022.59;1712906;83;21045;-65
2022/08/31 09:28:06;;;;;;;5.37;2.90;;;;;;;28.53;40.92;100022.10;1712342;83;21074;-67
2022/08/31 09:30:54;;;;;;;5.53;3.50;;;;;;;28.17;41.78;100019.81;1713029;83;21029;-67
2022/08/31 09:33:28;;;;;;;6.05;3.27;;;;;;;27.96;42.16;100021.73;1712270;83;21960;-65
2022/08/31 09:36:21;;;;;;;7.60;3.17;;;;;;;27.80;42.82;100020.37;1712586;83;21053;-66
2022/08/31 09:38:47;;;;;;;6.62;2.77;;;;;;;27.75;43.28;100019.53;1712899;83;21057;-66
2022/08/31 09:41:32;;;;;;;3.17;2.22;;;;;;;27.96;43.73;100021.73;1712727;83;21035;-65
2022/08/31 09:44:22;;;;;;;11.48;2.83;;;;;;;28.06;42.68;100020.69;1713008;83;21945;-65
2022/08/31 09:46:52;;;;;;;4.37;2.50;;;;;;;28.52;42.03;100006.84;1712718;83;21146;-66
2022/08/31 09:49:29;;;;;;;6.28;3.40;;;;;;;28.81;41.09;100007.56;1713148;83;21093;-65
2022/08/31 09:55:11;;;;;;;9.23;4.83;;;;;;;29.00;41.17;100007.60;1712595;83;21045;-67
2022/08/31 09:55:12;;;;;;;6.55;4.35;;;;;;;29.07;41.02;100007.24;1728631;82;21105;-66
2022/08/31 09:58:06;;;;;;;12.80;5.72;;;;;;;28.88;41.41;100006.34;1742212;82;21104;-65
2022/08/31 10:00:41;;;;;;;10.75;6.75;;;;;;;28.71;41.77;100011.50;1741158;82;21138;-66
2022/08/31 10:03:22;;;;;;;19.70;13.55;;;;;;;28.44;42.09;100009.06;1742383;82;21006;-65
2022/08/31 10:05:50;;;;;;;29.60;17.00;;;;;;;28.13;43.01;100018.47;1742641;82;21088;-66
2022/08/31 10:08:42;;;;;;;26.02;15.38;;;;;;;27.70;43.67;100016.50;1742205;82;21776;-66
2022/08/31 10:11:16;;;;;;;13.88;8.48;;;;;;;27.32;44.49;100007.20;1742324;82;21570;-66
2022/08/31 10:13:55;;;;;;;6.33;3.85;;;;;;;27.04;44.88;100009.34;1742291;82;21287;-66
2022/08/31 10:16:33;;;;;;;6.30;3.45;;;;;;;27.11;44.55;100011.72;1741904;81;21045;-65
2022/08/31 10:19:13;;;;;;;31.37;17.20;;;;;;;27.25;44.66;100004.33;1742387;82;21030;-66
2022/08/31 10:21:54;;;;;;;46.42;27.60;;;;;;;27.55;44.62;100011.44;1743766;82;21033;-65
2022/08/31 10:24:37;;;;;;;;;;;;;;;27.77;44.53;100016.67;1747222;82;21529;-66
2022/08/31 10:27:17;;;;;;;49.53;27.15;;;;;;;28.06;43.15;100017.47;1744455;82;21725;-66
2022/08/31 10:29:59;;;;;;;45.88;27.00;;;;;;;28.60;41.93;100010.05;1744658;82;21038;-66
2022/08/31 10:32:40;;;;;;;80.35;48.25;;;;;;;29.14;40.45;100000.59;1744378;82;21624;-65
2022/08/31 10:35:19;;;;;;;72.90;46.98;;;;;;;29.60;40.02;100002.43;1744445;82;21045;-65
2022/08/31 10:38:22;;;;;;;94.30;57.60;;;;;;;29.92;39.32;100012.68;1743412;82;21085;-66
2022/08/31 10:40:59;;;;;;;36.28;23.20;;;;;;;30.35;38.67;99999.34;1744082;81;22195;-66
2022/08/31 10:43:54;;;;;;;23.25;14.70;;;;;;;30.71;37.25;100000.70;1726774;82;21003;-65
2022/08/31 10:46:20;;;;;;;15.13;7.65;;;;;;;30.71;37.55;99983.91;1744448;81;21007;-66
2022/08/31 10:48:53;;;;;;;11.48;4.33;;;;;;;30.22;38.23;100007.58;1744382;82;21382;-67
2022/08/31 10:51:26;;;;;;;11.85;4.00;;;;;;;29.26;39.60;100005.08;1744496;82;21049;-67
2022/08/31 10:54:26;;;;;;;6.75;4.10;;;;;;;29.26;39.60;100005.08;1736044;82;21326;-65
2022/08/31 10:57:09;;;;;;;5.78;3.67;;;;;;;28.85;40.60;100010.25;1712039;83;21089;-65
2022/08/31 10:59:57;;;;;;;5.83;3.22;;;;;;;28.69;41.22;99994.58;1713966;83;21085;-67
2022/08/31 11:02:50;;;;;;;6.35;3.50;;;;;;;28.76;41.21;99989.64;1714965;83;21124;-67
2022/08/31 11:05:31;;;;;;;7.83;2.98;;;;;;;29.08;39.88;99993.20;1714350;83;21573;-65
2022/08/31 11:08:26;;;;;;;8.00;3.20;;;;;;;29.42;39.79;99992.73;1714651;83;21122;-65
2022/08/31 11:10:54;;;;;;;4.62;2.87;;;;;;;29.89;38.53;99985.39;1714704;83;21092;-66
2022/08/31 11:14:01;;;;;;;6.80;3.70;;;;;;;30.12;38.38;99989.38;1714575;83;21109;-66
2022/08/31 11:16:57;;;;;;;7.95;3.20;;;;;;;30.30;38.24;99984.97;1714471;83;21065;-66
2022/08/31 11:19:49;;;;;;;7.62;3.62;;;;;;;30.39;36.82;99985.68;1714520;83;21069;-66
2022/08/31 11:22:42;;;;;;;8.63;4.10;;;;;;;30.44;36.38;99981.38;1725775;83;21186;-66
2022/08/31 11:25:51;;;;;;;9.63;3.90;;;;;;;30.24;37.19;99977.01;1725408;83;21048;-66
2022/08/31 11:28:38;;;;;;;8.05;3.33;;;;;;;30.24;37.19;99977.01;1726175;83;21052;-65
2022/08/31 11:31:22;;;;;;;5.67;3.05;;;;;;;29.99;36.99;99988.66;1725619;83;21294;-65
2022/08/31 11:35:09;;;;;;;7.80;3.90;;;;;;;29.63;36.74;99991.20;1795122;79;22713;-65
2022/08/31 11:37:51;;;;;;;;;;;;;;;29.39;37.06;99987.69;1745789;82;21028;-66
2022/08/31 11:40:42;;;;;;;9.15;5.03;;;;;;;28.93;37.98;99985.47;1747973;82;21160;-67
2022/08/31 11:43:13;;;;;;;;;;;;;;;28.93;37.98;99985.47;1750929;82;20986;-68
2022/08/31 11:45:41;;;;;;;13.10;5.72;;;;;;;28.66;39.01;99980.36;1747876;82;20206;-66
2022/08/31 11:48:50;;;;;;;10.20;5.33;;;;;;;28.28;39.78;99982.05;1748046;82;21680;-66
2022/08/31 11:51:44;;;;;;;9.53;6.08;;;;;;;28.14;40.47;99980.92;1747920;82;21142;-66
2022/08/31 11:54:32;;;;;;;11.78;6.25;;;;;;;28.21;40.35;99973.78;1748099;81;21074;-65
2022/08/31 11:56:58;;;;;;;10.80;5.85;;;;;;;28.23;40.84;99967.69;1747679;81;22255;-67